sensor_id;sensor_type;location;lat;lon;timestamp;pressure;altitude;pressure_sealevel;temperature;humidity
9257;BME280;4665;51.368;6.782;2023-01-25T00:01:57;103410.16;;;-0.04;100.00
9257;BME280;4665;51.368;6.782;2023-01-25T00:04:22;103416.25;;;-0.04;100.00
9257;BME280;4665;51.368;6.782;2023-01-25T00:06:48;103411.00;;;-0.04;100.00
9257;BME280;4665;51.368;6.782;2023-01-25T00:09:15;103405.78;;;-0.04;100.00
9257;BME280;4665;51.368;6.782;2023-01-25T00:11:42;103400.47;;;-0.01;100.00
9257;BME280;4665;51.368;6.782;2023-01-25T00:14:09;103395.28;;;-0.04;100.00
9257;BME280;4665;51.368;6.782;2023-01-25T00:16:36;103397.97;;;-0.08;100.00
9257;BME280;4665;51.368;6.782;2023-01-25T00:19:02;103397.91;;;-0.05;100.00
9257;BME280;4665;51.368;6.782;2023-01-25T00:21:28;103393.56;;;-0.05;100.00
9257;BME280;4665;51.368;6.782;2023-01-25T00:23:53;103389.22;;;-0.07;100.00
9257;BME280;4665;51.368;6.782;2023-01-25T00:26:20;103388.34;;;-0.08;100.00
9257;BME280;4665;51.368;6.782;2023-01-25T00:28:49;103391.88;;;-0.09;100.00
9257;BME280;4665;51.368;6.782;2023-01-25T00:31:21;103389.25;;;-0.10;100.00
9257;BME280;4665;51.368;6.782;2023-01-25T00:38:05;103383.28;;;-0.20;100.00
9257;BME280;4665;51.368;6.782;2023-01-25T00:40:42;103378.13;;;-0.25;100.00
9257;BME280;4665;51.368;6.782;2023-01-25T00:43:07;103375.53;;;-0.28;100.00
9257;BME280;4665;51.368;6.782;2023-01-25T00:45:32;103372.94;;;-0.29;100.00
9257;BME280;4665;51.368;6.782;2023-01-25T00:47:58;103364.22;;;-0.30;100.00
9257;BME280;4665;51.368;6.782;2023-01-25T00:50:23;103366.91;;;-0.34;100.00
9257;BME280;4665;51.368;6.782;2023-01-25T00:52:51;103362.53;;;-0.35;100.00
9257;BME280;4665;51.368;6.782;2023-01-25T00:55:17;103358.94;;;-0.28;100.00
9257;BME280;4665;51.368;6.782;2023-01-25T00:57:42;103364.19;;;-0.28;100.00
9257;BME280;4665;51.368;6.782;2023-01-25T01:00:08;103361.56;;;-0.28;100.00
9257;BME280;4665;51.368;6.782;2023-01-25T01:02:34;103365.06;;;-0.28;100.00
9257;BME280;4665;51.368;6.782;2023-01-25T01:04:59;103361.56;;;-0.28;100.00
9257;BME280;4665;51.368;6.782;2023-01-25T01:07:25;103355.47;;;-0.30;100.00
9257;BME280;4665;51.368;6.782;2023-01-25T01:09:51;103365.94;;;-0.27;100.00
9257;BME280;4665;51.368;6.782;2023-01-25T01:12:17;103364.19;;;-0.28;100.00
9257;BME280;4665;51.368;6.782;2023-01-25T01:21:25;103373.00;;;-0.32;100.00
9257;BME280;4665;51.368;6.782;2023-01-25T01:23:53;103368.56;;;-0.29;100.00
9257;BME280;4665;51.368;6.782;2023-01-25T01:26:18;103363.31;;;-0.30;100.00
9257;BME280;4665;51.368;6.782;2023-01-25T01:28:44;103375.75;;;-0.45;100.00
9257;BME280;4665;51.368;6.782;2023-01-25T01:31:12;103376.66;;;-0.46;100.00
9257;BME280;4665;51.368;6.782;2023-01-25T01:33:38;103368.06;;;-0.57;100.00
9257;BME280;4665;51.368;6.782;2023-01-25T01:36:15;103364.59;;;-0.60;100.00
9257;BME280;4665;51.368;6.782;2023-01-25T01:38:41;103374.16;;;-0.55;100.00
9257;BME280;4665;51.368;6.782;2023-01-25T01:41:07;103356.72;;;-0.59;100.00
9257;BME280;4665;51.368;6.782;2023-01-25T01:43:33;103355.88;;;-0.58;100.00
9257;BME280;4665;51.368;6.782;2023-01-25T01:46:01;103352.28;;;-0.52;100.00
9257;BME280;4665;51.368;6.782;2023-01-25T01:54:51;103353.88;;;-0.40;100.00
9257;BME280;4665;51.368;6.782;2023-01-25T01:59:58;103351.19;;;-0.34;100.00
9257;BME280;4665;51.368;6.782;2023-01-25T02:02:26;103349.44;;;-0.35;100.00
9257;BME280;4665;51.368;6.782;2023-01-25T02:04:54;103346.81;;;-0.35;100.00
9257;BME280;4665;51.368;6.782;2023-01-25T02:07:28;103343.31;;;-0.34;100.00
9257;BME280;4665;51.368;6.782;2023-01-25T02:09:56;103346.81;;;-0.34;100.00
9257;BME280;4665;51.368;6.782;2023-01-25T02:12:23;103342.47;;;-0.36;100.00
9257;BME280;4665;51.368;6.782;2023-01-25T02:14:51;103341.56;;;-0.35;100.00
9257;BME280;4665;51.368;6.782;2023-01-25T02:17:23;103348.50;;;-0.31;100.00
9257;BME280;4665;51.368;6.782;2023-01-25T02:25:12;103347.84;;;-0.47;100.00
9257;BME280;4665;51.368;6.782;2023-01-25T02:27:47;103347.00;;;-0.48;100.00
9257;BME280;4665;51.368;6.782;2023-01-25T02:30:15;103333.91;;;-0.48;100.00
9257;BME280;4665;51.368;6.782;2023-01-25T02:32:40;103341.69;;;-0.43;100.00
9257;BME280;4665;51.368;6.782;2023-01-25T02:35:06;103346.03;;;-0.42;100.00
9257;BME280;4665;51.368;6.782;2023-01-25T02:37:33;103340.84;;;-0.45;100.00
9257;BME280;4665;51.368;6.782;2023-01-25T02:39:59;103338.22;;;-0.44;100.00
9257;BME280;4665;51.368;6.782;2023-01-25T02:42:29;103343.44;;;-0.44;100.00
9257;BME280;4665;51.368;6.782;2023-01-25T02:44:54;103339.97;;;-0.44;100.00
9257;BME280;4665;51.368;6.782;2023-01-25T02:47:21;103339.94;;;-0.43;100.00
9257;BME280;4665;51.368;6.782;2023-01-25T02:49:47;103338.28;;;-0.50;100.00
9257;BME280;4665;51.368;6.782;2023-01-25T02:52:12;103334.78;;;-0.49;100.00
9257;BME280;4665;51.368;6.782;2023-01-25T02:54:37;103346.94;;;-0.45;100.00
9257;BME280;4665;51.368;6.782;2023-01-25T02:57:03;103329.56;;;-0.49;100.00
9257;BME280;4665;51.368;6.782;2023-01-25T02:59:28;103338.22;;;-0.44;100.00
9257;BME280;4665;51.368;6.782;2023-01-25T03:01:54;103334.78;;;-0.49;100.00
9257;BME280;4665;51.368;6.782;2023-01-25T03:04:19;103326.09;;;-0.51;100.00
9257;BME280;4665;51.368;6.782;2023-01-25T03:06:44;103331.22;;;-0.45;100.00
9257;BME280;4665;51.368;6.782;2023-01-25T03:09:10;103337.34;;;-0.44;100.00
9257;BME280;4665;51.368;6.782;2023-01-25T03:11:36;103336.44;;;-0.43;100.00
9257;BME280;4665;51.368;6.782;2023-01-25T03:14:02;103332.91;;;-0.40;100.00
9257;BME280;4665;51.368;6.782;2023-01-25T03:16:29;103328.50;;;-0.37;100.00
9257;BME280;4665;51.368;6.782;2023-01-25T03:18:55;103325.91;;;-0.38;100.00
9257;BME280;4665;51.368;6.782;2023-01-25T03:21:22;103323.28;;;-0.37;100.00
9257;BME280;4665;51.368;6.782;2023-01-25T03:23:57;103332.88;;;-0.37;100.00
9257;BME280;4665;51.368;6.782;2023-01-25T03:26:23;103317.19;;;-0.40;100.00
9257;BME280;4665;51.368;6.782;2023-01-25T03:28:49;103322.44;;;-0.39;100.00
9257;BME280;4665;51.368;6.782;2023-01-25T03:31:16;103317.19;;;-0.40;100.00
9257;BME280;4665;51.368;6.782;2023-01-25T03:33:43;103312.88;;;-0.43;100.00
9257;BME280;4665;51.368;6.782;2023-01-25T03:36:09;103316.31;;;-0.39;100.00
9257;BME280;4665;51.368;6.782;2023-01-25T03:38:35;103318.91;;;-0.36;100.00
9257;BME280;4665;51.368;6.782;2023-01-25T03:41:02;103308.41;;;-0.36;100.00
9257;BME280;4665;51.368;6.782;2023-01-25T03:43:28;103304.03;;;-0.34;100.00
9257;BME280;4665;51.368;6.782;2023-01-25T03:45:55;103294.53;;;-0.41;100.00
9257;BME280;4665;51.368;6.782;2023-01-25T03:48:22;103303.22;;;-0.39;100.00
9257;BME280;4665;51.368;6.782;2023-01-25T03:50:54;103294.53;;;-0.43;100.00
9257;BME280;4665;51.368;6.782;2023-01-25T03:53:20;103294.53;;;-0.45;100.00
9257;BME280;4665;51.368;6.782;2023-01-25T03:55:59;103303.44;;;-0.55;100.00
9257;BME280;4665;51.368;6.782;2023-01-25T03:58:25;103288.84;;;-0.73;100.00
9257;BME280;4665;51.368;6.782;2023-01-25T04:00:54;103283.59;;;-0.71;100.00
9257;BME280;4665;51.368;6.782;2023-01-25T04:03:20;103287.91;;;-0.69;100.00
9257;BME280;4665;51.368;6.782;2023-01-25T04:05:46;103286.16;;;-0.68;100.00
9257;BME280;4665;51.368;6.782;2023-01-25T04:08:12;103280.97;;;-0.74;100.00
9257;BME280;4665;51.368;6.782;2023-01-25T04:10:37;103278.31;;;-0.70;100.00
9257;BME280;4665;51.368;6.782;2023-01-25T04:13:03;103270.44;;;-0.70;100.00
9257;BME280;4665;51.368;6.782;2023-01-25T04:15:28;103266.97;;;-0.70;100.00
9257;BME280;4665;51.368;6.782;2023-01-25T04:17:53;103262.59;;;-0.70;100.00
9257;BME280;4665;51.368;6.782;2023-01-25T04:20:20;103276.47;;;-0.63;100.00
9257;BME280;4665;51.368;6.782;2023-01-25T04:22:46;103266.03;;;-0.65;100.00
9257;BME280;4665;51.368;6.782;2023-01-25T04:25:11;103265.13;;;-0.62;100.00
9257;BME280;4665;51.368;6.782;2023-01-25T04:27:37;103259.91;;;-0.64;100.00
9257;BME280;4665;51.368;6.782;2023-01-25T04:30:03;103262.47;;;-0.59;100.00
9257;BME280;4665;51.368;6.782;2023-01-25T04:32:28;103255.47;;;-0.58;100.00
9257;BME280;4665;51.368;6.782;2023-01-25T04:34:54;103254.53;;;-0.56;100.00
9257;BME280;4665;51.368;6.782;2023-01-25T04:37:19;103254.59;;;-0.59;100.00
9257;BME280;4665;51.368;6.782;2023-01-25T04:39:44;103245.94;;;-0.62;100.00
9257;BME280;4665;51.368;6.782;2023-01-25T04:42:10;103253.81;;;-0.64;100.00
9257;BME280;4665;51.368;6.782;2023-01-25T04:44:35;103245.94;;;-0.64;100.00
9257;BME280;4665;51.368;6.782;2023-01-25T04:47:01;103245.94;;;-0.64;100.00
9257;BME280;4665;51.368;6.782;2023-01-25T04:49:27;103239.81;;;-0.63;100.00
9257;BME280;4665;51.368;6.782;2023-01-25T04:51:53;103240.72;;;-0.64;100.00
9257;BME280;4665;51.368;6.782;2023-01-25T04:54:18;103245.94;;;-0.64;100.00
9257;BME280;4665;51.368;6.782;2023-01-25T04:56:44;103235.47;;;-0.64;100.00
9257;BME280;4665;51.368;6.782;2023-01-25T04:59:10;103232.94;;;-0.70;100.00
9257;BME280;4665;51.368;6.782;2023-01-25T05:01:35;103245.16;;;-0.69;100.00
9257;BME280;4665;51.368;6.782;2023-01-25T05:04:00;103227.75;;;-0.75;100.00
9257;BME280;4665;51.368;6.782;2023-01-25T05:06:26;103225.09;;;-0.70;100.00
9257;BME280;4665;51.368;6.782;2023-01-25T05:08:51;103232.91;;;-0.67;100.00
9257;BME280;4665;51.368;6.782;2023-01-25T05:11:17;103239.88;;;-0.66;100.00
9257;BME280;4665;51.368;6.782;2023-01-25T05:13:42;103226.78;;;-0.66;100.00
9257;BME280;4665;51.368;6.782;2023-01-25T05:16:07;103225.88;;;-0.65;100.00
9257;BME280;4665;51.368;6.782;2023-01-25T05:18:33;103225.94;;;-0.68;100.00
9257;BME280;4665;51.368;6.782;2023-01-25T05:20:58;103234.56;;;-0.63;100.00
9257;BME280;4665;51.368;6.782;2023-01-25T05:23:24;103231.97;;;-0.63;100.00
9257;BME280;4665;51.368;6.782;2023-01-25T05:25:49;103225.84;;;-0.62;100.00
9257;BME280;4665;51.368;6.782;2023-01-25T05:28:33;103226.69;;;-0.60;100.00
9257;BME280;4665;51.368;6.782;2023-01-25T05:31:02;103220.63;;;-0.64;100.00
9257;BME280;4665;51.368;6.782;2023-01-25T05:33:28;103224.03;;;-0.58;100.00
9257;BME280;4665;51.368;6.782;2023-01-25T05:35:53;103219.72;;;-0.61;100.00
9257;BME280;4665;51.368;6.782;2023-01-25T05:38:21;103224.00;;;-0.55;100.00
9257;BME280;4665;51.368;6.782;2023-01-25T05:40:46;103215.25;;;-0.56;100.00
9257;BME280;4665;51.368;6.782;2023-01-25T05:43:12;103221.34;;;-0.54;100.00
9257;BME280;4665;51.368;6.782;2023-01-25T05:45:37;103216.16;;;-0.57;100.00
9257;BME280;4665;51.368;6.782;2023-01-25T05:48:04;103217.88;;;-0.56;100.00
9257;BME280;4665;51.368;6.782;2023-01-25T05:50:30;103218.69;;;-0.51;100.00
9257;BME280;4665;51.368;6.782;2023-01-25T05:52:55;103225.59;;;-0.47;100.00
9257;BME280;4665;51.368;6.782;2023-01-25T05:55:20;103209.94;;;-0.48;100.00
9257;BME280;4665;51.368;6.782;2023-01-25T05:57:46;103209.06;;;-0.49;100.00
9257;BME280;4665;51.368;6.782;2023-01-25T06:00:12;103218.66;;;-0.48;100.00
9257;BME280;4665;51.368;6.782;2023-01-25T06:02:37;103218.59;;;-0.45;100.00
9257;BME280;4665;51.368;6.782;2023-01-25T06:05:03;103214.19;;;-0.43;100.00
9257;BME280;4665;51.368;6.782;2023-01-25T06:07:32;103211.56;;;-0.43;100.00
9257;BME280;4665;51.368;6.782;2023-01-25T06:10:00;103220.34;;;-0.45;100.00
9257;BME280;4665;51.368;6.782;2023-01-25T06:12:26;103206.44;;;-0.49;100.00
9257;BME280;4665;51.368;6.782;2023-01-25T06:14:51;103213.31;;;-0.41;100.00
9257;BME280;4665;51.368;6.782;2023-01-25T06:17:17;103203.84;;;-0.49;100.00
9257;BME280;4665;51.368;6.782;2023-01-25T06:19:43;103212.63;;;-0.53;100.00
9257;BME280;4665;51.368;6.782;2023-01-25T06:22:08;103208.25;;;-0.54;100.00
9257;BME280;4665;51.368;6.782;2023-01-25T06:24:34;103216.09;;;-0.51;100.00
9257;BME280;4665;51.368;6.782;2023-01-25T06:26:59;103207.41;;;-0.54;100.00
9257;BME280;4665;51.368;6.782;2023-01-25T06:29:25;103214.38;;;-0.55;100.00
9257;BME280;4665;51.368;6.782;2023-01-25T06:31:50;103202.22;;;-0.59;100.00
9257;BME280;4665;51.368;6.782;2023-01-25T06:34:16;103215.25;;;-0.56;100.00
9257;BME280;4665;51.368;6.782;2023-01-25T06:36:41;103201.34;;;-0.58;100.00
9257;BME280;4665;51.368;6.782;2023-01-25T06:39:07;103207.44;;;-0.57;100.00
9257;BME280;4665;51.368;6.782;2023-01-25T06:41:33;103198.69;;;-0.56;100.00
9257;BME280;4665;51.368;6.782;2023-01-25T06:44:00;103198.75;;;-0.58;100.00
9257;BME280;4665;51.368;6.782;2023-01-25T06:46:25;103203.91;;;-0.55;100.00
9257;BME280;4665;51.368;6.782;2023-01-25T06:48:50;103203.97;;;-0.58;100.00
9257;BME280;4665;51.368;6.782;2023-01-25T06:51:16;103201.34;;;-0.58;100.00
9257;BME280;4665;51.368;6.782;2023-01-25T06:53:44;103217.00;;;-0.53;100.00
9257;BME280;4665;51.368;6.782;2023-01-25T06:56:17;103206.66;;;-0.62;100.00
9257;BME280;4665;51.368;6.782;2023-01-25T06:58:42;103211.91;;;-0.62;100.00
9257;BME280;4665;51.368;6.782;2023-01-25T07:03:37;103207.53;;;-0.62;100.00
9257;BME280;4665;51.368;6.782;2023-01-25T07:06:05;103207.53;;;-0.62;100.00
9257;BME280;4665;51.368;6.782;2023-01-25T07:08:32;103197.91;;;-0.63;100.00
9257;BME280;4665;51.368;6.782;2023-01-25T07:11:03;103212.66;;;-0.56;100.00
9257;BME280;4665;51.368;6.782;2023-01-25T07:13:31;103214.38;;;-0.55;100.00
9257;BME280;4665;51.368;6.782;2023-01-25T07:15:59;103212.63;;;-0.54;100.00
9257;BME280;4665;51.368;6.782;2023-01-25T07:18:26;103212.63;;;-0.53;100.00
9257;BME280;4665;51.368;6.782;2023-01-25T07:20:52;103207.31;;;-0.50;100.00
9257;BME280;4665;51.368;6.782;2023-01-25T07:23:18;103212.56;;;-0.50;100.00
9257;BME280;4665;51.368;6.782;2023-01-25T07:25:45;103201.22;;;-0.50;100.00
9257;BME280;4665;51.368;6.782;2023-01-25T07:28:12;103202.84;;;-0.43;100.00
9257;BME280;4665;51.368;6.782;2023-01-25T07:30:38;103204.56;;;-0.42;100.00
9257;BME280;4665;51.368;6.782;2023-01-25T07:33:04;103203.78;;;-0.47;100.00
9257;BME280;4665;51.368;6.782;2023-01-25T07:35:30;103210.78;;;-0.46;100.00
9257;BME280;4665;51.368;6.782;2023-01-25T07:37:56;103215.13;;;-0.47;100.00
9257;BME280;4665;51.368;6.782;2023-01-25T07:40:21;103204.69;;;-0.50;100.00
9257;BME280;4665;51.368;6.782;2023-01-25T07:42:50;103207.25;;;-0.47;100.00
9257;BME280;4665;51.368;6.782;2023-01-25T07:45:15;103203.78;;;-0.46;100.00
9257;BME280;4665;51.368;6.782;2023-01-25T07:47:41;103195.91;;;-0.46;100.00
9257;BME280;4665;51.368;6.782;2023-01-25T07:50:07;103200.25;;;-0.45;100.00
9257;BME280;4665;51.368;6.782;2023-01-25T07:52:32;103201.25;;;-0.52;100.00
9257;BME280;4665;51.368;6.782;2023-01-25T07:54:58;103195.06;;;-0.48;100.00
9257;BME280;4665;51.368;6.782;2023-01-25T07:57:23;103191.56;;;-0.47;100.00
9257;BME280;4665;51.368;6.782;2023-01-25T07:59:50;103196.00;;;-0.52;100.00
9257;BME280;4665;51.368;6.782;2023-01-25T08:02:15;103191.66;;;-0.53;100.00
9257;BME280;4665;51.368;6.782;2023-01-25T08:04:40;103192.53;;;-0.52;100.00
9257;BME280;4665;51.368;6.782;2023-01-25T08:07:07;103192.47;;;-0.49;100.00
9257;BME280;4665;51.368;6.782;2023-01-25T08:09:33;103189.84;;;-0.48;100.00
9257;BME280;4665;51.368;6.782;2023-01-25T08:11:58;103188.84;;;-0.40;100.00
9257;BME280;4665;51.368;6.782;2023-01-25T08:14:24;103176.69;;;-0.45;100.00
9257;BME280;4665;51.368;6.782;2023-01-25T08:16:49;103191.53;;;-0.44;100.00
9257;BME280;4665;51.368;6.782;2023-01-25T08:19:15;103182.81;;;-0.46;100.00
9257;BME280;4665;51.368;6.782;2023-01-25T08:21:40;103181.22;;;-0.56;100.00
9257;BME280;4665;51.368;6.782;2023-01-25T08:24:07;103186.44;;;-0.54;100.00
9257;BME280;4665;51.368;6.782;2023-01-25T08:26:34;103183.94;;;-0.62;100.00
9257;BME280;4665;51.368;6.782;2023-01-25T08:28:59;103188.34;;;-0.62;100.00
9257;BME280;4665;51.368;6.782;2023-01-25T08:31:30;103177.00;;;-0.65;100.00
9257;BME280;4665;51.368;6.782;2023-01-25T08:33:56;103167.41;;;-0.64;100.00
9257;BME280;4665;51.368;6.782;2023-01-25T08:36:22;103182.19;;;-0.60;100.00
9257;BME280;4665;51.368;6.782;2023-01-25T08:38:52;103179.56;;;-0.60;100.00
9257;BME280;4665;51.368;6.782;2023-01-25T08:41:18;103183.88;;;-0.57;100.00
9257;BME280;4665;51.368;6.782;2023-01-25T08:43:44;103183.03;;;-0.61;100.00
9257;BME280;4665;51.368;6.782;2023-01-25T08:46:11;103177.81;;;-0.61;100.00
9257;BME280;4665;51.368;6.782;2023-01-25T08:48:36;103173.47;;;-0.62;100.00
9257;BME280;4665;51.368;6.782;2023-01-25T08:51:02;103164.78;;;-0.64;100.00
9257;BME280;4665;51.368;6.782;2023-01-25T08:53:31;103174.47;;;-0.69;100.00
9257;BME280;4665;51.368;6.782;2023-01-25T08:56:08;103175.25;;;-0.64;100.00
9257;BME280;4665;51.368;6.782;2023-01-25T08:58:39;103172.63;;;-0.62;100.00
9257;BME280;4665;51.368;6.782;2023-01-25T09:01:06;103164.84;;;-0.67;100.00
9257;BME280;4665;51.368;6.782;2023-01-25T09:03:38;103169.25;;;-0.71;100.00
9257;BME280;4665;51.368;6.782;2023-01-25T09:06:04;103170.09;;;-0.69;100.00
9257;BME280;4665;51.368;6.782;2023-01-25T09:08:29;103167.41;;;-0.66;100.00
9257;BME280;4665;51.368;6.782;2023-01-25T09:11:00;103158.69;;;-0.65;100.00
9257;BME280;4665;51.368;6.782;2023-01-25T09:13:25;103160.31;;;-0.59;100.00
9257;BME280;4665;51.368;6.782;2023-01-25T09:15:51;103160.34;;;-0.60;100.00
9257;BME280;4665;51.368;6.782;2023-01-25T09:18:16;103160.28;;;-0.56;100.00
9257;BME280;4665;51.368;6.782;2023-01-25T09:20:41;103155.94;;;-0.57;100.00
9257;BME280;4665;51.368;6.782;2023-01-25T09:23:07;103157.63;;;-0.53;100.00
9257;BME280;4665;51.368;6.782;2023-01-25T09:25:32;103156.78;;;-0.55;100.00
9257;BME280;4665;51.368;6.782;2023-01-25T09:27:59;103148.09;;;-0.58;100.00
9257;BME280;4665;51.368;6.782;2023-01-25T09:30:25;103155.16;;;-0.62;100.00
9257;BME280;4665;51.368;6.782;2023-01-25T09:32:50;103146.44;;;-0.64;100.00
9257;BME280;4665;51.368;6.782;2023-01-25T09:35:16;103152.53;;;-0.64;100.00
9257;BME280;4665;51.368;6.782;2023-01-25T09:37:41;103142.13;;;-0.67;100.00
9257;BME280;4665;51.368;6.782;2023-01-25T09:40:35;103136.91;;;-0.70;100.00
9257;BME280;4665;51.368;6.782;2023-01-25T09:46:01;103134.28;;;-0.68;100.00
9257;BME280;4665;51.368;6.782;2023-01-25T09:48:41;103130.88;;;-0.73;100.00
9257;BME280;4665;51.368;6.782;2023-01-25T09:53:52;103139.44;;;-0.64;100.00
9257;BME280;4665;51.368;6.782;2023-01-25T09:56:22;103129.03;;;-0.67;100.00
9257;BME280;4665;51.368;6.782;2023-01-25T09:58:52;103134.19;;;-0.62;100.00
9257;BME280;4665;51.368;6.782;2023-01-25T10:01:43;103141.97;;;-0.57;100.00
9257;BME280;4665;51.368;6.782;2023-01-25T10:04:21;103129.00;;;-0.65;100.00
9257;BME280;4665;51.368;6.782;2023-01-25T10:06:56;103129.91;;;-0.68;100.00
9257;BME280;4665;51.368;6.782;2023-01-25T10:09:48;103135.16;;;-0.68;100.00
9257;BME280;4665;51.368;6.782;2023-01-25T10:12:24;103124.00;;;-0.79;100.00
9257;BME280;4665;51.368;6.782;2023-01-25T10:14:51;103132.75;;;-0.81;100.00
9257;BME280;4665;51.368;6.782;2023-01-25T10:20:25;103130.03;;;-0.75;100.00
9257;BME280;4665;51.368;6.782;2023-01-25T10:26:03;103127.47;;;-0.78;100.00
9257;BME280;4665;51.368;6.782;2023-01-25T10:28:41;103119.59;;;-0.77;100.00
9257;BME280;4665;51.368;6.782;2023-01-25T10:31:18;103113.44;;;-0.74;100.00
9257;BME280;4665;51.368;6.782;2023-01-25T10:33:45;103117.81;;;-0.75;100.00
9257;BME280;4665;51.368;6.782;2023-01-25T10:36:17;103111.69;;;-0.74;100.00
9257;BME280;4665;51.368;6.782;2023-01-25T10:38:46;103111.66;;;-0.72;100.00
9257;BME280;4665;51.368;6.782;2023-01-25T10:41:22;103104.63;;;-0.67;100.00
9257;BME280;4665;51.368;6.782;2023-01-25T10:43:51;103105.50;;;-0.70;100.00
9257;BME280;4665;51.368;6.782;2023-01-25T10:46:37;103099.41;;;-0.70;100.00
9257;BME280;4665;51.368;6.782;2023-01-25T10:49:23;103091.63;;;-0.73;100.00
9257;BME280;4665;51.368;6.782;2023-01-25T10:51:49;103079.56;;;-0.83;100.00
9257;BME280;4665;51.368;6.782;2023-01-25T10:54:15;103076.91;;;-0.80;100.00
9257;BME280;4665;51.368;6.782;2023-01-25T10:56:42;103068.13;;;-0.76;100.00
9257;BME280;4665;51.368;6.782;2023-01-25T10:59:19;103067.19;;;-0.74;100.00
9257;BME280;4665;51.368;6.782;2023-01-25T11:01:45;103067.22;;;-0.75;100.00
9257;BME280;4665;51.368;6.782;2023-01-25T11:06:53;103066.31;;;-0.74;100.00
9257;BME280;4665;51.368;6.782;2023-01-25T11:12:24;103043.56;;;-0.69;100.00
9257;BME280;4665;51.368;6.782;2023-01-25T11:14:50;103046.09;;;-0.66;100.00
9257;BME280;4665;51.368;6.782;2023-01-25T11:17:30;103044.41;;;-0.69;100.00
9257;BME280;4665;51.368;6.782;2023-01-25T11:20:18;103036.72;;;-0.79;100.00
9257;BME280;4665;51.368;6.782;2023-01-25T11:22:56;103009.88;;;-0.91;100.00
9257;BME280;4665;51.368;6.782;2023-01-25T11:28:16;103018.31;;;-0.75;100.00
9257;BME280;4665;51.368;6.782;2023-01-25T11:30:57;102991.44;;;-0.85;100.00
9257;BME280;4665;51.368;6.782;2023-01-25T11:33:29;103014.78;;;-0.71;100.00
9257;BME280;4665;51.368;6.782;2023-01-25T11:39:22;102978.38;;;-0.86;100.00
9257;BME280;4665;51.368;6.782;2023-01-25T12:02:12;102931.47;;;-0.97;100.00
9257;BME280;4665;51.368;6.782;2023-01-25T12:10:03;102930.25;;;-0.77;100.00
9257;BME280;4665;51.368;6.782;2023-01-25T12:12:54;102893.78;;;-0.87;100.00
9257;BME280;4665;51.368;6.782;2023-01-25T12:27:35;102853.44;;;-0.76;100.00
9257;BME280;4665;51.368;6.782;2023-01-25T12:30:24;102856.94;;;-0.77;100.00
9257;BME280;4665;51.368;6.782;2023-01-25T12:33:01;102846.41;;;-0.74;100.00
9257;BME280;4665;51.368;6.782;2023-01-25T12:35:38;102839.56;;;-0.81;100.00
9257;BME280;4665;51.368;6.782;2023-01-25T12:38:17;102855.19;;;-0.77;100.00
9257;BME280;4665;51.368;6.782;2023-01-25T12:40:58;102820.53;;;-0.88;100.00
9257;BME280;4665;51.368;6.782;2023-01-25T12:43:32;102840.22;;;-0.70;100.00
9257;BME280;4665;51.368;6.782;2023-01-25T12:46:13;102836.75;;;-0.72;100.00
9257;BME280;4665;51.368;6.782;2023-01-25T12:48:43;102835.97;;;-0.76;100.00
9257;BME280;4665;51.368;6.782;2023-01-25T12:51:12;102817.00;;;-0.86;100.00
9257;BME280;4665;51.368;6.782;2023-01-25T12:53:41;102811.78;;;-0.89;100.00
9257;BME280;4665;51.368;6.782;2023-01-25T12:56:54;102803.94;;;-0.87;100.00
9257;BME280;4665;51.368;6.782;2023-01-25T12:59:45;102790.28;;;-1.03;100.00
9257;BME280;4665;51.368;6.782;2023-01-25T13:02:19;102808.41;;;-0.94;100.00
9257;BME280;4665;51.368;6.782;2023-01-25T13:05:14;102779.88;;;-1.06;100.00
9257;BME280;4665;51.368;6.782;2023-01-25T13:07:55;102784.13;;;-1.00;100.00
9257;BME280;4665;51.368;6.782;2023-01-25T13:10:37;102782.31;;;-0.97;100.00
9257;BME280;4665;51.368;6.782;2023-01-25T13:15:48;102770.34;;;-1.09;100.00
9257;BME280;4665;51.368;6.782;2023-01-25T13:21:00;102773.72;;;-1.03;100.00
9257;BME280;4665;51.368;6.782;2023-01-25T13:23:39;102748.59;;;-1.12;100.00
9257;BME280;4665;51.368;6.782;2023-01-25T13:28:57;102751.88;;;-1.01;100.00
9257;BME280;4665;51.368;6.782;2023-01-25T13:31:43;102745.72;;;-1.00;100.00
9257;BME280;4665;51.368;6.782;2023-01-25T13:43:17;102731.56;;;-0.88;100.00
9257;BME280;4665;51.368;6.782;2023-01-25T13:45:55;102752.34;;;-0.82;100.00
9257;BME280;4665;51.368;6.782;2023-01-25T13:48:33;102735.91;;;-0.89;100.00
9257;BME280;4665;51.368;6.782;2023-01-25T13:51:32;102758.31;;;-0.77;100.00
9257;BME280;4665;51.368;6.782;2023-01-25T13:54:01;102728.16;;;-0.93;100.00
9257;BME280;4665;51.368;6.782;2023-01-25T13:56:32;102731.66;;;-0.93;100.00
9257;BME280;4665;51.368;6.782;2023-01-25T13:59:01;102727.28;;;-0.94;100.00
9257;BME280;4665;51.368;6.782;2023-01-25T14:01:48;102726.47;;;-0.96;100.00
9257;BME280;4665;51.368;6.782;2023-01-25T14:04:17;102725.59;;;-0.96;100.00
9257;BME280;4665;51.368;6.782;2023-01-25T14:06:55;102726.53;;;-0.99;100.00
9257;BME280;4665;51.368;6.782;2023-01-25T14:09:34;102706.56;;;-1.04;100.00
9257;BME280;4665;51.368;6.782;2023-01-25T14:12:19;102729.13;;;-0.97;100.00
9257;BME280;4665;51.368;6.782;2023-01-25T14:18:32;102721.22;;;-0.96;100.00
9257;BME280;4665;51.368;6.782;2023-01-25T14:21:20;102725.69;;;-1.01;100.00
9257;BME280;4665;51.368;6.782;2023-01-25T14:23:53;102715.34;;;-1.06;100.00
9257;BME280;4665;51.368;6.782;2023-01-25T14:26:42;102711.88;;;-1.08;100.00
9257;BME280;4665;51.368;6.782;2023-01-25T14:29:22;102731.66;;;-0.93;100.00
9257;BME280;4665;51.368;6.782;2023-01-25T14:31:53;102703.19;;;-1.08;100.00
9257;BME280;4665;51.368;6.782;2023-01-25T14:34:28;102731.59;;;-0.91;100.00
9257;BME280;4665;51.368;6.782;2023-01-25T14:37:24;102717.72;;;-0.95;100.00
9257;BME280;4665;51.368;6.782;2023-01-25T14:40:28;102705.53;;;-0.96;100.00
9257;BME280;4665;51.368;6.782;2023-01-25T14:43:08;102695.13;;;-0.97;100.00
9257;BME280;4665;51.368;6.782;2023-01-25T14:45:43;102695.88;;;-0.94;100.00
9257;BME280;4665;51.368;6.782;2023-01-25T14:48:42;102698.31;;;-0.85;100.00
9257;BME280;4665;51.368;6.782;2023-01-25T14:51:28;102685.31;;;-0.89;100.00
9257;BME280;4665;51.368;6.782;2023-01-25T14:54:03;102673.16;;;-0.92;100.00
9257;BME280;4665;51.368;6.782;2023-01-25T14:56:42;102701.66;;;-0.78;100.00
9257;BME280;4665;51.368;6.782;2023-01-25T15:07:49;102686.91;;;-0.82;100.00
9257;BME280;4665;51.368;6.782;2023-01-25T15:10:29;102663.59;;;-0.93;100.00
9257;BME280;4665;51.368;6.782;2023-01-25T15:13:25;102683.41;;;-0.81;100.00